createdAt,value
2019-06-07T00:04:43.548Z,1.50
2019-06-07T00:09:47.649Z,1.73
2019-06-07T00:14:51.752Z,1.70
2019-06-07T00:19:57.658Z,1.20
2019-06-07T00:25:03.321Z,1.73
2019-06-07T00:30:33.813Z,2.13
2019-06-07T00:35:15.460Z,3.17
2019-06-07T00:40:30.870Z,3.57
2019-06-07T00:45:25.881Z,3.13
2019-06-07T00:50:29.988Z,2.93
2019-06-07T00:55:34.092Z,2.83
2019-06-07T01:00:38.982Z,3.00
2019-06-07T01:05:47.956Z,2.67
2019-06-07T01:10:53.575Z,2.20
2019-06-07T01:15:54.729Z,2.00
2019-06-07T01:20:58.907Z,1.43
2019-06-07T01:26:03.277Z,2.20
2019-06-07T01:31:09.620Z,1.87
2019-06-07T01:36:13.749Z,1.60
2019-06-07T01:41:22.065Z,2.20
2019-06-07T01:46:26.671Z,2.27
2019-06-07T01:51:31.248Z,2.67
2019-06-07T01:56:36.428Z,2.73
2019-06-07T02:01:40.533Z,2.47
2019-06-07T02:06:45.170Z,2.53
2019-06-07T02:11:49.568Z,2.73
2019-06-07T02:16:53.940Z,2.50
2019-06-07T02:21:58.290Z,2.50
2019-06-07T02:27:02.408Z,2.77
2019-06-07T02:32:07.011Z,2.90
2019-06-07T02:37:12.297Z,3.23
2019-06-07T02:42:16.494Z,3.30
2019-06-07T02:47:22.753Z,3.50
2019-06-07T02:52:29.310Z,3.90
2019-06-07T02:57:36.955Z,4.13
2019-06-07T03:02:42.792Z,3.57
2019-06-07T03:07:47.515Z,4.07
2019-06-07T03:12:53.396Z,3.87
2019-06-07T03:18:22.155Z,3.93
2019-06-07T03:23:28.732Z,4.37
2019-06-07T03:28:36.106Z,3.50
2019-06-07T03:33:42.746Z,4.00
2019-06-07T03:38:46.129Z,3.67
2019-06-07T03:43:51.215Z,4.73
2019-06-07T03:48:55.529Z,5.57
2019-06-07T03:54:04.529Z,4.60
2019-06-07T03:59:05.713Z,4.87
2019-06-07T04:04:10.364Z,5.90
2019-06-07T04:09:14.708Z,5.67
2019-06-07T04:14:19.082Z,4.73
2019-06-07T04:19:24.452Z,5.90
2019-06-07T04:24:31.099Z,5.17
2019-06-07T04:29:59.753Z,4.60
2019-06-07T04:34:43.519Z,4.50
2019-06-07T04:39:48.496Z,5.10
2019-06-07T04:44:53.074Z,4.37
2019-06-07T04:49:58.797Z,4.97
2019-06-07T04:55:02.976Z,4.40
2019-06-07T05:00:46.865Z,4.13
2019-06-07T05:05:13.077Z,4.90
2019-06-07T05:10:17.422Z,4.60
2019-06-07T05:15:23.085Z,4.80
2019-06-07T05:20:27.185Z,4.50
2019-06-07T05:25:33.504Z,5.07
2019-06-07T05:35:43.878Z,5.40
2019-06-07T05:40:48.945Z,4.80
2019-06-07T05:45:53.672Z,4.63
2019-06-07T05:50:59.199Z,4.97
2019-06-07T05:56:03.503Z,5.20
2019-06-07T06:01:42.219Z,4.30
2019-06-07T06:06:14.442Z,4.97
2019-06-07T06:11:20.396Z,4.97
2019-06-07T06:16:24.768Z,5.00
2019-06-07T06:21:29.948Z,6.03
2019-06-07T06:26:40.644Z,5.47
2019-06-07T06:32:30.215Z,5.73
2019-06-07T06:36:50.290Z,5.83
2019-06-07T06:42:01.002Z,5.83
2019-06-07T06:47:01.162Z,5.13
2019-06-07T06:52:07.139Z,4.87
2019-06-07T06:57:19.641Z,4.40
2019-06-07T07:02:17.419Z,4.37
2019-06-07T07:07:26.251Z,4.20
2019-06-07T07:12:31.547Z,4.57
2019-06-07T07:17:50.822Z,3.77
2019-06-07T07:22:46.405Z,3.80
2019-06-07T07:27:54.905Z,3.50
2019-06-07T07:32:59.308Z,3.50
2019-06-07T07:38:02.782Z,3.27
2019-06-07T07:43:06.969Z,2.87
2019-06-07T07:48:17.752Z,2.87
2019-06-07T07:53:18.174Z,2.70
2019-06-07T07:58:24.582Z,2.67
2019-06-07T08:03:28.664Z,2.57
2019-06-07T08:08:33.117Z,2.30
2019-06-07T08:13:37.481Z,2.40
2019-06-07T08:18:41.778Z,2.83
2019-06-07T08:23:47.551Z,2.70
2019-06-07T08:28:54.518Z,2.03
2019-06-07T08:34:00.451Z,2.33
2019-06-07T08:39:07.688Z,2.63
2019-06-07T08:44:23.193Z,2.07
2019-06-07T08:49:18.309Z,2.90
2019-06-07T08:54:23.470Z,2.30
2019-06-07T08:59:28.787Z,1.97
2019-06-07T09:04:33.095Z,2.17
2019-06-07T09:09:41.779Z,2.13
2019-06-07T09:14:59.528Z,2.40
2019-06-07T09:19:49.386Z,2.10
2019-06-07T09:24:59.487Z,2.30
2019-06-07T09:30:04.773Z,2.40
2019-06-07T09:35:12.397Z,2.30
2019-06-07T09:40:25.113Z,1.93
2019-06-07T09:45:19.464Z,2.10
2019-06-07T09:50:24.330Z,2.37
2019-06-07T09:55:28.697Z,2.10
2019-06-07T10:00:40.878Z,1.90
2019-06-07T10:05:39.591Z,1.90
2019-06-07T10:10:43.780Z,1.80
2019-06-07T10:15:48.207Z,2.00
2019-06-07T10:20:53.506Z,1.80
2019-06-07T10:25:57.648Z,1.90
2019-06-07T10:31:04.511Z,2.30
2019-06-07T10:36:10.740Z,1.53
2019-06-07T10:41:13.676Z,1.87
2019-06-07T10:46:18.216Z,1.70
2019-06-07T10:51:22.414Z,1.80
2019-06-07T10:56:26.779Z,1.77
2019-06-07T11:01:31.009Z,2.03
2019-06-07T11:06:35.108Z,1.50
2019-06-07T11:11:40.060Z,1.67
2019-06-07T11:16:44.270Z,1.50
2019-06-07T11:21:49.956Z,1.70
2019-06-07T11:26:54.102Z,1.90
2019-06-07T11:31:58.328Z,1.50
2019-06-07T11:37:02.529Z,1.63
2019-06-07T11:42:07.903Z,1.73
2019-06-07T11:47:14.421Z,1.80
2019-06-07T11:52:21.708Z,1.60
2019-06-07T11:57:25.849Z,1.85
2019-06-07T12:02:29.993Z,1.93
2019-06-07T12:07:35.490Z,1.73
2019-06-07T12:12:39.650Z,1.55
2019-06-07T12:17:43.806Z,2.03
2019-06-07T12:22:47.998Z,2.10
2019-06-07T12:27:54.630Z,2.03
2019-06-07T12:32:58.761Z,1.97
2019-06-07T12:38:03.476Z,1.73
2019-06-07T12:43:07.683Z,2.07
2019-06-07T12:48:16.281Z,2.10
2019-06-07T12:53:18.011Z,2.90
2019-06-07T12:58:32.591Z,2.03
2019-06-07T13:03:29.782Z,1.90
2019-06-07T13:08:34.991Z,2.30
2019-06-07T13:13:39.096Z,2.23
2019-06-07T13:18:44.343Z,2.40
2019-06-07T13:23:48.868Z,2.35
2019-06-07T13:28:53.004Z,2.17
2019-06-07T13:33:57.126Z,2.22
2019-06-07T13:39:01.521Z,2.12
2019-06-07T13:44:07.605Z,2.10
2019-06-07T13:49:11.718Z,2.60
2019-06-07T13:54:16.077Z,2.25
2019-06-07T13:59:22.338Z,2.15
2019-06-07T14:04:27.041Z,3.02
2019-06-07T14:09:33.492Z,2.50
2019-06-07T14:14:40.349Z,2.50
2019-06-07T14:19:44.464Z,2.92
2019-06-07T14:24:48.851Z,2.50
2019-06-07T14:29:52.981Z,2.60
2019-06-07T14:34:57.214Z,2.77
2019-06-07T14:40:01.653Z,2.42
2019-06-07T14:45:07.544Z,2.40
2019-06-07T14:50:16.545Z,2.60
2019-06-07T14:55:33.075Z,2.30
2019-06-07T15:00:38.944Z,2.47
2019-06-07T15:05:43.133Z,2.62
2019-06-07T15:10:47.257Z,2.72
2019-06-07T15:15:51.393Z,2.45
2019-06-07T15:20:55.986Z,2.02
2019-06-07T15:26:00.961Z,2.50
2019-06-07T15:31:06.506Z,2.62
2019-06-07T15:36:10.645Z,2.50
2019-06-07T15:41:18.785Z,2.45
2019-06-07T15:46:23.156Z,2.40
2019-06-07T15:51:28.379Z,2.30
2019-06-07T15:56:34.701Z,2.58
2019-06-07T16:01:39.537Z,2.55
2019-06-07T16:06:44.458Z,2.70
2019-06-07T16:11:48.966Z,2.37
2019-06-07T16:16:53.131Z,2.20
2019-06-07T16:21:57.534Z,2.35
2019-06-07T16:27:02.155Z,2.20
2019-06-07T16:32:06.585Z,2.23
2019-06-07T16:37:12.535Z,2.47
2019-06-07T16:42:16.951Z,2.70
2019-06-07T16:47:31.038Z,2.25
2019-06-07T16:52:37.162Z,2.40
2019-06-07T16:57:42.910Z,2.20
2019-06-07T17:02:56.412Z,2.22
2019-06-07T17:07:57.546Z,3.27
2019-06-07T17:13:03.299Z,2.33
2019-06-07T17:18:09.229Z,1.90
2019-06-07T17:23:13.329Z,1.87
2019-06-07T17:28:19.173Z,2.13
2019-06-07T17:33:25.390Z,1.80
2019-06-07T17:38:30.994Z,1.20
2019-06-07T17:43:48.654Z,1.00
2019-06-07T17:48:45.466Z,1.17
2019-06-07T17:53:52.015Z,0.80
2019-06-07T17:58:56.068Z,0.83
2019-06-07T18:04:00.881Z,0.60
2019-06-07T18:09:06.708Z,1.40
2019-06-07T18:14:11.359Z,0.53
2019-06-07T18:19:15.669Z,0.53
2019-06-07T18:24:22.139Z,0.43
2019-06-07T18:29:26.268Z,0.70
2019-06-07T18:34:30.404Z,0.43
2019-06-07T18:39:35.590Z,0.87
2019-06-07T18:44:46.908Z,0.57
2019-06-07T18:49:51.489Z,0.57
2019-06-07T18:54:56.220Z,0.90
2019-06-07T19:00:05.337Z,0.63
2019-06-07T19:05:10.970Z,0.50
2019-06-07T19:10:18.773Z,0.70
2019-06-07T19:15:24.679Z,0.67
2019-06-07T19:20:29.104Z,0.60
2019-06-07T19:25:33.356Z,0.60
2019-06-07T19:30:37.549Z,0.60
2019-06-07T19:35:41.788Z,0.60
2019-06-07T19:40:46.893Z,0.57
2019-06-07T19:45:52.765Z,0.70
2019-06-07T19:51:00.947Z,0.50
2019-06-07T19:56:07.342Z,0.67
2019-06-07T20:01:13.364Z,0.40
2019-06-07T20:06:17.829Z,0.50
2019-06-07T20:11:22.882Z,0.60
2019-06-07T20:16:28.860Z,0.60
2019-06-07T20:21:34.319Z,0.30
2019-06-07T20:26:38.524Z,0.50
2019-06-07T20:31:44.599Z,0.60
2019-06-07T20:36:49.053Z,0.40
2019-06-07T20:41:57.098Z,0.50
2019-06-07T20:47:02.433Z,0.60
2019-06-07T20:52:06.812Z,0.60
2019-06-07T20:57:12.787Z,0.40
2019-06-07T21:02:17.060Z,0.50
2019-06-07T21:07:21.259Z,0.67
2019-06-07T21:12:32.675Z,0.50
2019-06-07T21:17:37.431Z,0.43
2019-06-07T21:22:42.829Z,0.50
2019-06-07T21:27:47.246Z,0.43
2019-06-07T21:32:51.627Z,0.47
2019-06-07T21:37:55.760Z,0.50
2019-06-07T21:42:59.892Z,0.57
2019-06-07T21:48:08.707Z,0.40
2019-06-07T21:53:13.341Z,0.63
2019-06-07T21:58:17.465Z,0.90
2019-06-07T22:03:22.873Z,0.60
2019-06-07T22:08:29.823Z,0.73
2019-06-07T22:13:34.433Z,0.67
2019-06-07T22:18:38.836Z,0.70
2019-06-07T22:23:43.734Z,0.63
2019-06-07T22:28:48.963Z,0.73
2019-06-07T22:33:53.147Z,0.63
2019-06-07T22:39:00.276Z,0.60
2019-06-07T22:44:04.491Z,0.90
2019-06-07T22:49:09.183Z,0.80
2019-06-07T22:54:14.021Z,0.80
2019-06-07T22:59:20.566Z,0.80
2019-06-07T23:04:24.856Z,0.53
2019-06-07T23:09:28.961Z,0.80
2019-06-07T23:14:34.868Z,0.63
2019-06-07T23:19:39.182Z,0.90
2019-06-07T23:24:43.524Z,0.70
2019-06-07T23:29:47.652Z,0.80
2019-06-07T23:34:52.563Z,0.57
2019-06-07T23:39:58.216Z,0.73
2019-06-07T23:45:02.405Z,0.97
2019-06-07T23:50:06.908Z,0.90
2019-06-07T23:55:11.817Z,0.77
